Meteo Giornale » Osservazioni meteo Stati Uniti (USA) » Palm Springs
ore: 15:53 - Osservazioni Meteo Palm Springs
Lat. 33° 49' N Lon. 116° 30' W Alt. 140 metri s.l.m.
38 °C
Sereno
Temp. 24 Ore
24 °C
39 °C
Nord-Ovest
20.3 Km/h
Dew point 2 °C
Umidità 10 %
Visibilità 10 Km
Il sole sorge alle ore 06:20
Il sole tramonta alle ore 19:11
| Data e Ora | Cielo e Fenomeni | T °C | DP °C | Um. % | Pres. hPa | Vis. km | Vento km/h | |
|---|---|---|---|---|---|---|---|---|
| Oggi h: 15:53 | Sereno | 38 | 2 | 10 | 1009 | 10 | NO 20.3 | |
| Oggi h: 14:53 | Sereno | 38 | 1 | 9 | 1010 | 10 | N/NO 13 | |
| Oggi h: 13:53 | Sereno | 38 | 1 | 9 | 1010 | 10 | N 22.2 | |
| Oggi h: 12:53 | Sereno | 37 | 0 | 9 | 1011 | 10 | N/NO 16.7 | |
| Oggi h: 11:53 | Sereno | 36 | 1 | 11 | 1012 | 10 | N 9.3 | |
| Oggi h: 10:53 | Sereno | 34 | 0 | 11 | 1012 | 10 | N 0 | |
| Oggi h: 09:53 | Sereno | 33 | 1 | 13 | 1012 | 10 | N 0 | |
| Oggi h: 08:53 | Sereno | 30 | 4 | 19 | 1012 | 10 | N 5.5 | |
| Oggi h: 07:53 | Sereno | 27 | 5 | 24 | 1012 | 10 | N 5.5 | |
| Oggi h: 06:53 | Sereno | 24 | 6 | 31 | 1011 | 10 | N 5.5 | |
| Oggi h: 05:53 | Sereno | 24 | 6 | 31 | 1011 | 10 | N 0 | |
| Oggi h: 04:53 | Sereno | 24 | 5 | 29 | 1011 | 10 | N 0 | |
| Oggi h: 03:53 | Sereno | 26 | 4 | 24 | 1011 | 10 | N 0 | |
| Oggi h: 02:53 | Sereno | 27 | 3 | 21 | 1011 | 10 | N 0 | |
| Oggi h: 01:53 | Sereno | 28 | 3 | 20 | 1010 | 10 | N 5.5 | |
| Oggi h: 00:53 | Sereno | 29 | 4 | 20 | 1010 | 10 | N 0 | |
| Ieri h: 23:53 | Sereno | 31 | 2 | 15 | 1010 | 10 | NO 20.3 | |
| Ieri h: 22:53 | Sereno | 31 | 4 | 18 | 1010 | 10 | N 20.3 | |
| Ieri h: 21:53 | Sereno | 32 | 6 | 19 | 1010 | 10 | NO 24 | |
| Ieri h: 20:53 | Sereno | 33 | 7 | 19 | 1009 | 10 | N/NO 27.8 | |
| Ieri h: 18:53 | Sereno | 36 | 10 | 20 | 1008 | 10 | NO 31.5 | |
| Ieri h: 17:53 | Sereno | 37 | 8 | 17 | 1007 | 10 | N 9.3 | |
| Ieri h: 16:53 | Sereno | 39 | 7 | 14 | 1007 | 10 | NO 18.5 | |



